createdAt,value
2018-11-11T00:00:14.070Z,6.80
2018-11-11T00:01:19.604Z,6.10
2018-11-11T00:02:25.147Z,6.40
2018-11-11T00:03:30.680Z,7.70
2018-11-11T00:04:36.221Z,7.20
2018-11-11T00:05:41.759Z,6.50
2018-11-11T00:06:47.301Z,6.80
2018-11-11T00:07:52.827Z,6.90
2018-11-11T00:08:58.369Z,6.70
2018-11-11T00:10:03.913Z,7.10
2018-11-11T00:11:09.445Z,6.70
2018-11-11T00:12:14.983Z,6.40
2018-11-11T00:13:20.520Z,6.90
2018-11-11T00:14:26.058Z,6.50
2018-11-11T00:15:31.595Z,7.30
2018-11-11T00:16:37.126Z,6.70
2018-11-11T00:17:43.743Z,7.60
2018-11-11T00:18:48.203Z,6.20
2018-11-11T00:19:53.736Z,6.40
2018-11-11T00:20:59.279Z,6.70
2018-11-11T00:22:04.824Z,6.90
2018-11-11T00:23:10.358Z,7.10
2018-11-11T00:24:15.892Z,6.80
2018-11-11T00:25:21.423Z,7.10
2018-11-11T00:26:26.967Z,6.90
2018-11-11T00:27:32.502Z,7.90
2018-11-11T00:28:38.112Z,7.40
2018-11-11T00:29:43.574Z,7.50
2018-11-11T00:30:49.114Z,7.00
2018-11-11T00:31:54.657Z,6.50
2018-11-11T00:33:00.188Z,6.90
2018-11-11T00:34:05.727Z,7.50
2018-11-11T00:35:11.315Z,6.40
2018-11-11T00:36:16.798Z,7.00
2018-11-11T00:37:22.338Z,7.30
2018-11-11T00:38:27.879Z,7.20
2018-11-11T00:39:33.469Z,6.80
2018-11-11T00:40:38.947Z,7.40
2018-11-11T00:41:44.483Z,7.30
2018-11-11T00:42:50.025Z,6.70
2018-11-11T00:43:55.637Z,6.70
2018-11-11T00:45:01.104Z,7.20
2018-11-11T00:46:06.647Z,7.00
2018-11-11T00:47:12.173Z,6.50
2018-11-11T00:48:17.884Z,6.80
2018-11-11T00:49:23.392Z,6.50
2018-11-11T00:50:28.789Z,6.80
2018-11-11T00:51:34.323Z,7.80
2018-11-11T00:52:39.857Z,6.50
2018-11-11T00:53:45.397Z,6.80
2018-11-11T00:54:50.938Z,7.60
2018-11-11T00:55:56.503Z,7.30
2018-11-11T00:57:02.015Z,7.10
2018-11-11T00:58:07.547Z,5.70
2018-11-11T00:59:13.093Z,6.60
2018-11-11T01:00:18.617Z,6.60
2018-11-11T01:01:24.157Z,6.30
2018-11-11T01:02:29.698Z,6.50
2018-11-11T01:03:35.235Z,7.10
2018-11-11T01:04:40.825Z,6.60
2018-11-11T01:05:46.307Z,6.40
2018-11-11T01:06:51.849Z,6.70
2018-11-11T01:07:57.384Z,6.60
2018-11-11T01:09:02.916Z,6.40
2018-11-11T01:10:08.457Z,7.20
2018-11-11T01:11:13.993Z,6.40
2018-11-11T01:12:19.566Z,7.10
2018-11-11T01:13:25.066Z,7.10
2018-11-11T01:14:30.619Z,6.20
2018-11-11T01:15:36.140Z,6.60
2018-11-11T01:16:41.689Z,6.70
2018-11-11T01:17:47.225Z,6.50
2018-11-11T01:18:52.761Z,6.60
2018-11-11T01:19:58.299Z,6.30
2018-11-11T01:21:03.831Z,7.10
2018-11-11T01:22:09.370Z,6.60
2018-11-11T01:23:14.900Z,6.00
2018-11-11T01:24:20.444Z,6.80
2018-11-11T01:25:25.979Z,6.70
2018-11-11T01:26:31.519Z,6.40
2018-11-11T01:27:37.050Z,6.60
2018-11-11T01:28:42.590Z,6.10
2018-11-11T01:29:48.138Z,6.50
2018-11-11T01:30:53.664Z,7.70
2018-11-11T01:31:59.211Z,6.40
2018-11-11T01:33:04.748Z,6.80
2018-11-11T01:34:10.280Z,6.70
2018-11-11T01:35:15.812Z,6.30
2018-11-11T01:36:21.352Z,6.80
2018-11-11T01:37:26.889Z,6.30
2018-11-11T01:38:32.475Z,6.50
2018-11-11T01:39:37.963Z,5.80
2018-11-11T01:40:43.503Z,6.20
2018-11-11T01:41:49.040Z,6.20
2018-11-11T01:42:54.578Z,6.30
2018-11-11T01:44:00.164Z,5.90
2018-11-11T01:45:05.653Z,5.60
2018-11-11T01:46:11.184Z,6.50
2018-11-11T01:47:16.735Z,6.60
2018-11-11T01:48:22.260Z,6.50
2018-11-11T01:49:27.804Z,6.60
2018-11-11T01:50:33.339Z,6.50
2018-11-11T01:51:38.881Z,6.70
2018-11-11T01:52:44.416Z,6.10
2018-11-11T01:53:49.948Z,6.30
2018-11-11T01:54:55.486Z,5.80
2018-11-11T01:56:01.031Z,6.10
2018-11-11T01:57:06.561Z,6.20
2018-11-11T01:58:12.099Z,6.20
2018-11-11T01:59:17.646Z,6.50
2018-11-11T02:00:23.170Z,6.30
2018-11-11T02:01:28.717Z,6.10
2018-11-11T02:02:34.249Z,6.10
2018-11-11T02:03:39.783Z,5.80
2018-11-11T02:04:45.328Z,6.60
2018-11-11T02:05:50.856Z,6.20
2018-11-11T02:06:56.399Z,6.40
2018-11-11T02:08:01.948Z,6.50
2018-11-11T02:09:07.474Z,6.50
2018-11-11T02:10:13.008Z,6.30
2018-11-11T02:11:18.714Z,6.30
2018-11-11T02:12:24.086Z,6.20
2018-11-11T02:13:29.624Z,6.50
2018-11-11T02:14:35.165Z,6.00
2018-11-11T02:15:40.699Z,6.30
2018-11-11T02:16:46.233Z,6.20
2018-11-11T02:17:51.770Z,6.00
2018-11-11T02:18:57.310Z,6.50
2018-11-11T02:20:02.856Z,6.00
2018-11-11T02:21:08.459Z,6.20
2018-11-11T02:22:13.923Z,6.40
2018-11-11T02:23:19.456Z,6.00
2018-11-11T02:24:24.997Z,6.60
2018-11-11T02:25:30.529Z,6.20
2018-11-11T02:26:36.066Z,5.70
2018-11-11T02:27:41.611Z,6.10
2018-11-11T02:28:47.148Z,7.20
2018-11-11T02:29:52.678Z,6.60
2018-11-11T02:30:58.220Z,6.30
2018-11-11T02:32:03.759Z,6.30
2018-11-11T02:33:09.297Z,7.10
2018-11-11T02:34:14.835Z,6.80
2018-11-11T02:35:20.367Z,7.50
2018-11-11T02:36:25.913Z,6.20
2018-11-11T02:37:31.443Z,7.10
2018-11-11T02:38:36.992Z,6.30
2018-11-11T02:39:42.517Z,6.70
2018-11-11T02:40:48.053Z,6.80
2018-11-11T02:41:53.592Z,6.50
2018-11-11T02:42:59.129Z,5.80
2018-11-11T02:44:04.669Z,6.60
2018-11-11T02:45:10.206Z,6.10
2018-11-11T02:46:15.741Z,6.40
2018-11-11T02:47:21.281Z,7.40
2018-11-11T02:48:26.817Z,6.80
2018-11-11T02:49:32.357Z,6.60
2018-11-11T02:50:37.950Z,6.00
2018-11-11T02:51:43.425Z,6.90
2018-11-11T02:52:48.963Z,6.30
2018-11-11T02:53:54.503Z,7.30
2018-11-11T02:55:00.067Z,6.60
2018-11-11T02:56:05.576Z,6.40
2018-11-11T02:57:11.118Z,7.50
2018-11-11T02:58:16.653Z,6.30
2018-11-11T02:59:22.188Z,6.80
2018-11-11T03:00:27.732Z,7.10
2018-11-11T03:01:33.264Z,7.60
2018-11-11T03:02:38.806Z,7.00
2018-11-11T03:03:44.344Z,7.10
2018-11-11T03:04:49.878Z,6.10
2018-11-11T03:05:55.415Z,6.20
2018-11-11T03:07:00.956Z,7.40
2018-11-11T03:08:06.484Z,6.60
2018-11-11T03:09:12.029Z,7.00
2018-11-11T03:10:17.567Z,6.80
2018-11-11T03:11:23.099Z,7.40
2018-11-11T03:12:28.639Z,7.30
2018-11-11T03:13:34.179Z,7.80
2018-11-11T03:14:39.718Z,7.20
2018-11-11T03:15:45.270Z,7.60
2018-11-11T03:16:50.787Z,7.80
2018-11-11T03:17:56.326Z,7.70
2018-11-11T03:19:01.860Z,7.50
2018-11-11T03:20:07.400Z,7.50
2018-11-11T03:21:12.938Z,7.90
2018-11-11T03:22:18.471Z,6.30
2018-11-11T03:23:24.014Z,7.40
2018-11-11T03:24:29.552Z,7.10
2018-11-11T03:25:35.084Z,7.60
2018-11-11T03:26:40.627Z,7.50
2018-11-11T03:27:46.166Z,6.60
2018-11-11T03:28:51.696Z,6.80
2018-11-11T03:29:57.238Z,7.60
2018-11-11T03:31:02.779Z,6.90
2018-11-11T03:32:08.319Z,6.90
2018-11-11T03:33:13.854Z,7.20
2018-11-11T03:34:19.387Z,7.20
2018-11-11T03:35:24.920Z,7.60
2018-11-11T03:36:30.463Z,7.50
2018-11-11T03:37:35.995Z,8.00
2018-11-11T03:38:41.537Z,6.80
2018-11-11T03:39:47.073Z,8.40
2018-11-11T03:40:52.612Z,10.10
2018-11-11T03:41:58.145Z,9.20
2018-11-11T03:43:03.683Z,9.40
2018-11-11T03:44:09.220Z,9.00
2018-11-11T03:45:14.761Z,9.60
2018-11-11T03:46:20.299Z,9.10
2018-11-11T03:47:25.831Z,9.20
2018-11-11T03:48:31.375Z,20.40
2018-11-11T03:49:36.911Z,18.30
2018-11-11T03:50:42.450Z,16.90
2018-11-11T03:51:47.987Z,19.30
2018-11-11T03:52:53.520Z,22.90
2018-11-11T03:53:59.058Z,16.50
2018-11-11T03:55:04.598Z,9.20
2018-11-11T03:56:10.130Z,9.50
2018-11-11T03:57:15.671Z,9.70
2018-11-11T03:58:21.211Z,9.40
2018-11-11T03:59:26.745Z,9.60
2018-11-11T04:00:32.277Z,8.40
2018-11-11T04:01:37.820Z,8.60
2018-11-11T04:02:43.355Z,7.60
2018-11-11T04:03:48.897Z,7.40
2018-11-11T04:04:54.428Z,7.90
2018-11-11T04:05:59.971Z,7.50
2018-11-11T04:07:05.511Z,6.90
2018-11-11T04:08:11.041Z,7.80
2018-11-11T04:09:16.578Z,8.40
2018-11-11T04:10:22.146Z,7.80
2018-11-11T04:11:27.650Z,7.00
2018-11-11T04:12:33.196Z,7.60
2018-11-11T04:13:38.730Z,8.00
2018-11-11T04:14:44.266Z,8.40
2018-11-11T04:15:49.798Z,8.00
2018-11-11T04:16:55.337Z,7.90
2018-11-11T04:18:00.878Z,7.20
2018-11-11T04:19:06.420Z,8.30
2018-11-11T04:20:11.959Z,7.20
2018-11-11T04:21:17.486Z,8.30
2018-11-11T04:22:23.023Z,7.30
2018-11-11T04:23:28.562Z,7.60
2018-11-11T04:24:34.099Z,7.50
2018-11-11T04:25:39.642Z,7.60
2018-11-11T04:26:45.187Z,7.10
2018-11-11T04:27:50.711Z,7.60
2018-11-11T04:28:56.257Z,8.50
2018-11-11T04:30:01.793Z,8.00
2018-11-11T04:31:07.321Z,8.10
2018-11-11T04:32:12.858Z,7.30
2018-11-11T04:33:18.400Z,7.80
2018-11-11T04:34:23.931Z,7.40
2018-11-11T04:35:29.481Z,8.10
2018-11-11T04:36:35.015Z,8.10
2018-11-11T04:37:40.559Z,8.70
2018-11-11T04:38:46.084Z,7.50
2018-11-11T04:39:51.626Z,7.70
2018-11-11T04:40:57.159Z,8.50
2018-11-11T04:42:02.699Z,7.80
2018-11-11T04:43:08.234Z,8.70
2018-11-11T04:44:13.768Z,8.70
2018-11-11T04:45:19.314Z,8.80
2018-11-11T04:46:24.907Z,7.70
2018-11-11T04:47:30.386Z,7.80
2018-11-11T04:48:35.921Z,7.80
2018-11-11T04:49:41.456Z,8.70
2018-11-11T04:50:46.998Z,8.50
2018-11-11T04:51:52.538Z,7.30
2018-11-11T04:52:58.067Z,8.60
2018-11-11T04:54:03.608Z,7.60
2018-11-11T04:55:09.145Z,9.00
2018-11-11T04:56:14.680Z,7.60
2018-11-11T04:57:20.214Z,8.60
2018-11-11T04:58:25.754Z,8.10
2018-11-11T04:59:31.295Z,8.50
2018-11-11T05:00:36.831Z,8.00
2018-11-11T05:01:42.457Z,8.30
2018-11-11T05:02:47.912Z,8.20
2018-11-11T05:03:53.446Z,8.10
2018-11-11T05:04:58.976Z,8.20
2018-11-11T05:06:04.513Z,7.90
2018-11-11T05:07:10.053Z,7.30
2018-11-11T05:08:15.593Z,7.50
2018-11-11T05:09:21.136Z,7.20
2018-11-11T05:10:26.662Z,8.00
2018-11-11T05:11:32.203Z,7.60
2018-11-11T05:12:37.742Z,8.50
2018-11-11T05:13:43.275Z,7.90
2018-11-11T05:14:48.820Z,8.80
2018-11-11T05:15:54.354Z,6.90
2018-11-11T05:16:59.883Z,7.10
2018-11-11T05:18:05.425Z,7.70
2018-11-11T05:19:10.965Z,8.50
2018-11-11T05:20:16.505Z,8.50
2018-11-11T05:21:22.034Z,9.00
2018-11-11T05:22:27.573Z,7.70
2018-11-11T05:23:33.116Z,8.60
2018-11-11T05:24:38.650Z,8.50
2018-11-11T05:25:44.185Z,7.50
2018-11-11T05:26:49.723Z,8.30
2018-11-11T05:27:55.258Z,7.30
2018-11-11T05:29:00.799Z,7.10
2018-11-11T05:30:06.336Z,7.70
2018-11-11T05:31:11.870Z,8.30
2018-11-11T05:32:17.414Z,7.40
2018-11-11T05:33:22.945Z,8.80
2018-11-11T05:34:28.483Z,7.40
2018-11-11T05:35:34.015Z,7.60
2018-11-11T05:36:39.560Z,8.30
2018-11-11T05:37:45.092Z,8.40
2018-11-11T05:38:50.635Z,8.60
2018-11-11T05:39:56.170Z,8.50
2018-11-11T05:41:01.708Z,9.10
2018-11-11T05:42:07.240Z,8.30
2018-11-11T05:43:12.785Z,8.30
2018-11-11T05:44:18.320Z,9.50
2018-11-11T05:45:23.861Z,8.40
2018-11-11T05:46:29.391Z,8.50
2018-11-11T05:47:34.932Z,8.30
2018-11-11T05:48:40.463Z,8.40
2018-11-11T05:49:46.006Z,8.10
2018-11-11T05:50:51.539Z,8.80
2018-11-11T05:51:57.085Z,8.00
2018-11-11T05:53:02.624Z,7.40
2018-11-11T05:54:08.155Z,7.80
2018-11-11T05:55:13.688Z,8.60
2018-11-11T05:56:19.229Z,7.90
2018-11-11T05:57:24.762Z,8.20
2018-11-11T05:58:30.297Z,7.40
2018-11-11T05:59:35.842Z,7.30
2018-11-11T06:00:41.374Z,8.30
2018-11-11T06:01:46.916Z,8.20
2018-11-11T06:02:52.447Z,11.00
2018-11-11T06:03:57.983Z,9.40
2018-11-11T06:05:03.525Z,8.20
2018-11-11T06:06:09.060Z,9.50
2018-11-11T06:07:14.596Z,8.30
2018-11-11T06:08:20.141Z,8.10
2018-11-11T06:09:25.676Z,8.00
2018-11-11T06:10:31.209Z,8.30
2018-11-11T06:11:36.745Z,7.60
2018-11-11T06:12:42.285Z,7.40
2018-11-11T06:13:47.823Z,8.20
2018-11-11T06:14:53.355Z,6.80
2018-11-11T06:15:58.895Z,7.10
2018-11-11T06:17:04.432Z,7.40
2018-11-11T06:18:09.971Z,8.20
2018-11-11T06:19:15.504Z,8.60
2018-11-11T06:20:21.044Z,7.90
2018-11-11T06:21:26.576Z,8.50
2018-11-11T06:22:32.120Z,7.40
2018-11-11T06:23:37.652Z,7.70
2018-11-11T06:24:43.191Z,8.20
2018-11-11T06:25:48.729Z,7.20
2018-11-11T06:26:54.268Z,7.00
2018-11-11T06:27:59.802Z,8.10
2018-11-11T06:29:05.341Z,8.00
2018-11-11T06:30:10.884Z,7.30
2018-11-11T06:31:16.417Z,7.30
2018-11-11T06:32:21.948Z,7.30
2018-11-11T06:33:27.490Z,7.10
2018-11-11T06:34:33.026Z,8.10
2018-11-11T06:35:38.565Z,6.90
2018-11-11T06:36:44.097Z,7.50
2018-11-11T06:37:49.632Z,7.60
2018-11-11T06:38:55.173Z,7.70
2018-11-11T06:40:00.713Z,7.10
2018-11-11T06:41:06.243Z,7.90
2018-11-11T06:42:11.779Z,6.90
2018-11-11T06:43:17.324Z,7.30
2018-11-11T06:44:22.856Z,7.80
2018-11-11T06:45:28.392Z,8.00
2018-11-11T06:46:33.929Z,8.50
2018-11-11T06:47:39.465Z,6.50
2018-11-11T06:48:45.002Z,8.80
2018-11-11T06:49:50.544Z,8.30
2018-11-11T06:50:56.077Z,7.60
2018-11-11T06:52:01.618Z,8.00
2018-11-11T06:53:07.157Z,8.00
2018-11-11T06:54:12.693Z,8.10
2018-11-11T06:55:18.229Z,8.30
2018-11-11T06:56:23.763Z,7.80
2018-11-11T06:57:29.302Z,7.20
2018-11-11T06:58:34.835Z,6.90
2018-11-11T06:59:40.379Z,8.10
2018-11-11T07:00:45.919Z,8.20
2018-11-11T07:01:51.450Z,7.90
2018-11-11T07:02:56.985Z,7.10
2018-11-11T07:04:02.529Z,6.70
2018-11-11T07:05:08.062Z,7.30
2018-11-11T07:06:13.594Z,6.80
2018-11-11T07:07:19.170Z,7.90
2018-11-11T07:08:24.672Z,8.30
2018-11-11T07:09:30.208Z,7.30
2018-11-11T07:10:35.743Z,7.90
2018-11-11T07:11:41.279Z,8.00
2018-11-11T07:12:46.820Z,7.50
2018-11-11T07:13:52.361Z,8.40
2018-11-11T07:14:57.897Z,7.40
2018-11-11T07:16:03.433Z,7.20
2018-11-11T07:17:08.971Z,7.60
2018-11-11T07:18:14.504Z,7.80
2018-11-11T07:19:20.043Z,7.70
2018-11-11T07:20:25.582Z,7.60
2018-11-11T07:21:31.119Z,7.20
2018-11-11T07:22:36.652Z,7.40
2018-11-11T07:23:42.250Z,7.70
2018-11-11T07:24:47.726Z,7.80
2018-11-11T07:25:53.269Z,6.60
2018-11-11T07:26:58.808Z,7.40
2018-11-11T07:28:04.336Z,6.60
2018-11-11T07:29:09.875Z,7.70
2018-11-11T07:30:15.418Z,8.00
2018-11-11T07:31:20.970Z,7.50
2018-11-11T07:32:26.487Z,7.70
2018-11-11T07:33:32.022Z,6.90
2018-11-11T07:34:37.595Z,7.10
2018-11-11T07:35:43.119Z,7.00
2018-11-11T07:36:48.635Z,6.90
2018-11-11T07:37:54.188Z,6.10
2018-11-11T07:38:59.706Z,7.00
2018-11-11T07:40:05.246Z,6.40
2018-11-11T07:41:10.821Z,7.80
2018-11-11T07:42:16.337Z,7.10
2018-11-11T07:43:21.856Z,7.10
2018-11-11T07:44:27.396Z,8.10
2018-11-11T07:45:32.932Z,7.10
2018-11-11T07:46:38.467Z,6.90
2018-11-11T07:47:44.026Z,7.50
2018-11-11T07:48:49.541Z,9.30
2018-11-11T07:49:55.084Z,8.40
2018-11-11T07:51:00.620Z,10.20
2018-11-11T07:52:06.246Z,9.80
2018-11-11T07:53:11.692Z,11.70
2018-11-11T07:54:17.231Z,11.30
2018-11-11T07:55:22.819Z,9.10
2018-11-11T07:56:28.312Z,8.50
2018-11-11T07:57:33.866Z,11.80
2018-11-11T07:58:39.377Z,11.00
2018-11-11T07:59:44.916Z,9.30
2018-11-11T08:00:50.450Z,7.30
2018-11-11T08:01:56.015Z,7.10
2018-11-11T08:03:01.538Z,6.50
2018-11-11T08:04:07.065Z,6.60
2018-11-11T08:05:12.601Z,7.20
2018-11-11T08:06:18.136Z,6.70
2018-11-11T08:07:23.676Z,7.50
2018-11-11T08:08:29.212Z,6.80
2018-11-11T08:09:34.752Z,7.00
2018-11-11T08:10:40.290Z,6.80
2018-11-11T08:11:45.828Z,6.20
2018-11-11T08:12:51.367Z,7.00
2018-11-11T08:13:56.899Z,7.20
2018-11-11T08:15:02.438Z,6.90
2018-11-11T08:16:07.981Z,7.30
2018-11-11T08:17:13.519Z,8.80
2018-11-11T08:18:19.052Z,11.60
2018-11-11T08:19:24.596Z,7.80
2018-11-11T08:20:30.125Z,7.60
2018-11-11T08:21:35.664Z,6.80
2018-11-11T08:22:41.201Z,6.80
2018-11-11T08:23:46.741Z,6.30
2018-11-11T08:24:52.275Z,6.10
2018-11-11T08:25:57.815Z,6.40
2018-11-11T08:27:03.357Z,6.80
2018-11-11T08:28:08.892Z,6.50
2018-11-11T08:29:14.425Z,6.10
2018-11-11T08:30:19.961Z,6.50
2018-11-11T08:31:25.499Z,6.40
2018-11-11T08:32:31.038Z,6.30
2018-11-11T08:33:36.574Z,5.80
2018-11-11T08:34:42.113Z,6.80
2018-11-11T08:35:47.661Z,7.30
2018-11-11T08:36:53.188Z,6.90
2018-11-11T08:37:58.729Z,6.40
2018-11-11T08:39:04.263Z,6.30
2018-11-11T08:40:09.801Z,6.20
2018-11-11T08:41:15.338Z,7.70
2018-11-11T08:42:20.899Z,6.50
2018-11-11T08:43:26.413Z,7.00
2018-11-11T08:44:31.952Z,6.10
2018-11-11T08:45:37.487Z,5.70
2018-11-11T08:46:43.031Z,6.00
2018-11-11T08:47:48.564Z,5.90
2018-11-11T08:48:54.101Z,6.00
2018-11-11T08:49:59.640Z,6.30
2018-11-11T08:51:05.181Z,6.50
2018-11-11T08:52:10.713Z,6.20
2018-11-11T08:53:16.303Z,6.40
2018-11-11T08:54:21.787Z,5.70
2018-11-11T08:55:27.327Z,6.20
2018-11-11T08:56:32.865Z,6.40
2018-11-11T08:57:38.405Z,6.00
2018-11-11T08:58:43.939Z,5.50
2018-11-11T08:59:49.478Z,6.50
2018-11-11T09:00:55.018Z,5.90
2018-11-11T09:02:00.553Z,5.60
2018-11-11T09:03:06.096Z,6.20
2018-11-11T09:04:11.628Z,5.90
2018-11-11T09:05:17.170Z,6.00
2018-11-11T09:06:22.756Z,6.30
2018-11-11T09:07:28.239Z,7.40
2018-11-11T09:08:33.778Z,6.30
2018-11-11T09:09:39.315Z,6.50
2018-11-11T09:10:44.857Z,6.30
2018-11-11T09:11:50.389Z,6.70
2018-11-11T09:12:55.930Z,6.20
2018-11-11T09:14:01.464Z,6.00
2018-11-11T09:15:07.001Z,6.80
2018-11-11T09:16:12.550Z,6.90
2018-11-11T09:17:18.092Z,6.20
2018-11-11T09:18:23.618Z,6.30
2018-11-11T09:19:29.154Z,6.30
2018-11-11T09:20:34.706Z,6.00
2018-11-11T09:21:40.233Z,6.40
2018-11-11T09:22:45.774Z,6.10
2018-11-11T09:23:51.378Z,6.00
2018-11-11T09:24:56.842Z,5.80
2018-11-11T09:26:02.382Z,5.60
2018-11-11T09:27:07.928Z,5.70
2018-11-11T09:28:13.456Z,5.60
2018-11-11T09:29:19.012Z,5.20
2018-11-11T09:30:24.597Z,5.20
2018-11-11T09:31:30.075Z,5.50
2018-11-11T09:32:35.609Z,5.30
2018-11-11T09:33:41.145Z,5.30
2018-11-11T09:34:46.682Z,5.40
2018-11-11T09:35:52.227Z,5.50
2018-11-11T09:36:57.758Z,5.90
2018-11-11T09:38:03.297Z,5.20
2018-11-11T09:39:08.956Z,5.80
2018-11-11T09:40:14.373Z,5.60
2018-11-11T09:41:19.910Z,5.80
2018-11-11T09:42:25.474Z,5.60
2018-11-11T09:43:30.988Z,6.20
2018-11-11T09:44:36.526Z,6.30
2018-11-11T09:45:42.064Z,5.70
2018-11-11T09:46:47.601Z,5.50
2018-11-11T09:47:53.270Z,6.90
2018-11-11T09:48:58.682Z,6.90
2018-11-11T09:50:04.216Z,7.00
2018-11-11T09:51:09.751Z,6.60
2018-11-11T09:52:15.297Z,7.30
2018-11-11T09:53:20.828Z,7.70
2018-11-11T09:54:26.366Z,7.60
2018-11-11T09:55:31.902Z,6.60
2018-11-11T09:56:37.440Z,6.00
2018-11-11T09:57:42.985Z,5.70
2018-11-11T09:58:48.599Z,5.40
2018-11-11T09:59:54.144Z,5.50
2018-11-11T10:00:59.591Z,4.90
2018-11-11T10:02:05.133Z,5.30
2018-11-11T10:03:10.668Z,4.90
2018-11-11T10:04:16.205Z,5.40
2018-11-11T10:05:21.743Z,5.50
2018-11-11T10:06:27.378Z,5.80
2018-11-11T10:07:32.821Z,5.30
2018-11-11T10:08:38.357Z,5.40
2018-11-11T10:09:43.901Z,6.10
2018-11-11T10:10:49.433Z,5.60
2018-11-11T10:11:54.971Z,5.20
2018-11-11T10:13:00.512Z,4.70
2018-11-11T10:14:06.045Z,5.40
2018-11-11T10:15:11.585Z,4.70
2018-11-11T10:16:17.130Z,4.80
2018-11-11T10:17:22.666Z,4.90
2018-11-11T10:18:28.206Z,4.40
2018-11-11T10:19:33.744Z,5.30
2018-11-11T10:20:39.311Z,5.40
2018-11-11T10:21:44.814Z,5.10
2018-11-11T10:22:50.353Z,4.50
2018-11-11T10:23:55.888Z,5.30
2018-11-11T10:25:01.430Z,5.40
2018-11-11T10:26:06.965Z,4.80
2018-11-11T10:27:12.558Z,5.20
2018-11-11T10:28:18.040Z,5.20
2018-11-11T10:29:23.627Z,5.10
2018-11-11T10:30:29.124Z,4.20
2018-11-11T10:31:34.660Z,4.90
2018-11-11T10:32:40.192Z,4.80
2018-11-11T10:33:45.734Z,4.70
2018-11-11T10:34:51.267Z,5.10
2018-11-11T10:35:56.806Z,4.70
2018-11-11T10:37:02.344Z,5.10
2018-11-11T10:38:07.886Z,4.80
2018-11-11T10:39:13.488Z,4.50
2018-11-11T10:40:18.957Z,4.80
2018-11-11T10:41:24.497Z,4.40
2018-11-11T10:42:30.034Z,4.20
2018-11-11T10:43:35.576Z,4.30
2018-11-11T10:44:41.108Z,4.10
2018-11-11T10:45:46.650Z,4.00
2018-11-11T10:46:52.190Z,4.30
2018-11-11T10:47:57.729Z,5.40
2018-11-11T10:49:03.265Z,4.40
2018-11-11T10:50:08.806Z,4.80
2018-11-11T10:51:14.337Z,4.80
2018-11-11T10:52:19.882Z,3.90
2018-11-11T10:53:25.415Z,4.20
2018-11-11T10:54:31.053Z,4.60
2018-11-11T10:55:36.494Z,4.90
2018-11-11T10:56:42.031Z,4.60
2018-11-11T10:57:47.574Z,5.00
2018-11-11T10:58:53.110Z,4.70
2018-11-11T10:59:58.679Z,4.50
2018-11-11T11:01:04.180Z,4.00
2018-11-11T11:02:09.719Z,4.50
2018-11-11T11:03:15.259Z,4.60
2018-11-11T11:04:20.795Z,4.30
2018-11-11T11:05:26.336Z,4.10
2018-11-11T11:06:31.870Z,4.90
2018-11-11T11:07:37.410Z,4.90
2018-11-11T11:08:42.949Z,4.30
2018-11-11T11:09:48.486Z,4.70
2018-11-11T11:10:54.030Z,4.70
2018-11-11T11:11:59.567Z,5.30
2018-11-11T11:13:05.120Z,4.60
2018-11-11T11:14:10.642Z,4.50
2018-11-11T11:15:16.173Z,4.20
2018-11-11T11:16:21.721Z,4.10
2018-11-11T11:17:27.252Z,5.10
2018-11-11T11:18:32.797Z,4.50
2018-11-11T11:19:38.331Z,4.30
2018-11-11T11:20:43.871Z,4.70
2018-11-11T11:21:49.410Z,4.00
2018-11-11T11:22:54.980Z,4.20
2018-11-11T11:24:00.485Z,3.60
2018-11-11T11:25:06.020Z,3.70
2018-11-11T11:26:11.566Z,3.90
2018-11-11T11:27:17.203Z,3.70
2018-11-11T11:28:22.636Z,4.00
2018-11-11T11:29:28.186Z,4.20
2018-11-11T11:30:33.714Z,3.60
2018-11-11T11:31:39.316Z,4.10
2018-11-11T11:32:44.788Z,3.90
2018-11-11T11:33:50.328Z,3.80
2018-11-11T11:34:55.864Z,3.80
2018-11-11T11:36:01.405Z,3.30
2018-11-11T11:37:06.946Z,3.70
2018-11-11T11:38:12.538Z,3.00
2018-11-11T11:39:18.021Z,3.70
2018-11-11T11:40:23.564Z,3.10
2018-11-11T11:41:29.200Z,3.60
2018-11-11T11:42:34.637Z,3.40
2018-11-11T11:43:40.170Z,3.80
2018-11-11T11:44:45.715Z,3.20
2018-11-11T11:45:51.257Z,2.80
2018-11-11T11:46:56.788Z,3.30
2018-11-11T11:48:02.325Z,3.30
2018-11-11T11:49:07.863Z,3.20
2018-11-11T11:50:13.420Z,3.60
2018-11-11T11:51:18.941Z,3.40
2018-11-11T11:52:24.538Z,3.30
2018-11-11T11:53:30.019Z,3.10
2018-11-11T11:54:35.563Z,2.80
2018-11-11T11:55:41.096Z,3.20
2018-11-11T11:56:46.640Z,2.70
2018-11-11T11:57:52.194Z,2.90
2018-11-11T11:58:57.709Z,3.40
2018-11-11T12:00:03.255Z,5.70
2018-11-11T12:01:08.789Z,4.00
2018-11-11T12:02:14.353Z,5.10
2018-11-11T12:03:19.871Z,3.20
2018-11-11T12:04:25.406Z,2.70
2018-11-11T12:05:30.945Z,3.10
2018-11-11T12:06:36.479Z,2.60
2018-11-11T12:07:42.022Z,5.90
2018-11-11T12:08:47.658Z,2.80
2018-11-11T12:09:53.102Z,2.60
2018-11-11T12:10:58.642Z,2.40
2018-11-11T12:12:04.179Z,3.00
2018-11-11T12:13:09.715Z,2.60
2018-11-11T12:14:15.249Z,2.80
2018-11-11T12:15:20.792Z,2.60
2018-11-11T12:16:26.353Z,2.50
2018-11-11T12:17:31.872Z,2.60
2018-11-11T12:18:37.405Z,2.50
2018-11-11T12:19:42.952Z,2.60
2018-11-11T12:20:48.480Z,2.60
2018-11-11T12:21:54.020Z,2.40
2018-11-11T12:22:59.626Z,2.70
2018-11-11T12:24:05.099Z,2.40
2018-11-11T12:25:10.642Z,2.20
2018-11-11T12:26:16.179Z,2.30
2018-11-11T12:27:21.730Z,2.90
2018-11-11T12:28:27.258Z,2.40
2018-11-11T12:29:32.792Z,3.00
2018-11-11T12:30:38.371Z,2.40
2018-11-11T12:31:43.867Z,2.20
2018-11-11T12:32:49.406Z,2.70
2018-11-11T12:33:54.945Z,2.30
2018-11-11T12:35:00.546Z,2.50
2018-11-11T12:36:06.023Z,2.80
2018-11-11T12:37:11.562Z,2.40
2018-11-11T12:38:17.102Z,2.60
2018-11-11T12:39:22.685Z,2.60
2018-11-11T12:40:28.178Z,2.60
2018-11-11T12:41:33.717Z,2.20
2018-11-11T12:42:39.255Z,1.80
2018-11-11T12:43:44.793Z,2.30
2018-11-11T12:44:50.390Z,2.60
2018-11-11T12:45:55.884Z,2.10
2018-11-11T12:47:01.536Z,2.10
2018-11-11T12:48:06.951Z,2.30
2018-11-11T12:49:12.563Z,2.20
2018-11-11T12:50:18.085Z,2.40
2018-11-11T12:51:23.574Z,2.30
2018-11-11T12:52:29.110Z,1.90
2018-11-11T12:53:34.645Z,2.10
2018-11-11T12:54:40.234Z,2.00
2018-11-11T12:55:45.723Z,2.10
2018-11-11T12:56:51.263Z,2.10
2018-11-11T12:57:56.811Z,2.80
2018-11-11T12:59:02.339Z,2.20
2018-11-11T13:00:07.882Z,2.20
2018-11-11T13:01:13.423Z,2.20
2018-11-11T13:02:18.952Z,2.00
2018-11-11T13:03:24.503Z,2.00
2018-11-11T13:04:30.036Z,1.90
2018-11-11T13:05:35.573Z,2.60
2018-11-11T13:06:41.118Z,2.10
2018-11-11T13:07:46.655Z,2.30
2018-11-11T13:08:52.189Z,2.20
2018-11-11T13:09:57.732Z,2.60
2018-11-11T13:11:03.269Z,1.90
2018-11-11T13:12:08.936Z,2.10
2018-11-11T13:13:14.348Z,2.20
2018-11-11T13:14:19.887Z,2.00
2018-11-11T13:15:25.423Z,2.00
2018-11-11T13:16:30.968Z,2.10
2018-11-11T13:17:36.499Z,2.00
2018-11-11T13:18:42.039Z,2.00
2018-11-11T13:19:47.595Z,2.30
2018-11-11T13:20:53.117Z,1.90
2018-11-11T13:21:58.666Z,2.10
2018-11-11T13:23:04.270Z,2.00
2018-11-11T13:24:09.738Z,1.60
2018-11-11T13:25:15.269Z,1.90
2018-11-11T13:26:20.819Z,1.90
2018-11-11T13:27:26.353Z,2.10
2018-11-11T13:28:31.892Z,1.90
2018-11-11T13:29:37.430Z,1.50
2018-11-11T13:30:42.965Z,2.00
2018-11-11T13:31:48.526Z,2.30
2018-11-11T13:32:54.045Z,1.70
2018-11-11T13:33:59.582Z,1.50
2018-11-11T13:35:05.121Z,1.90
2018-11-11T13:36:10.663Z,1.50
2018-11-11T13:37:16.197Z,2.10
2018-11-11T13:38:21.829Z,1.60
2018-11-11T13:39:27.287Z,1.70
2018-11-11T13:40:32.814Z,2.10
2018-11-11T13:41:38.409Z,2.00
2018-11-11T13:42:43.893Z,2.00
2018-11-11T13:43:49.436Z,1.90
2018-11-11T13:44:54.971Z,2.00
2018-11-11T13:46:00.507Z,2.00
2018-11-11T13:47:06.051Z,1.70
2018-11-11T13:48:11.586Z,2.00
2018-11-11T13:49:17.125Z,2.30
2018-11-11T13:50:22.734Z,1.70
2018-11-11T13:51:28.212Z,1.50
2018-11-11T13:52:33.748Z,1.80
2018-11-11T13:53:39.281Z,1.80
2018-11-11T13:54:44.820Z,2.00
2018-11-11T13:55:50.417Z,1.70
2018-11-11T13:56:55.897Z,1.80
2018-11-11T13:58:01.433Z,1.70
2018-11-11T13:59:06.975Z,1.60
2018-11-11T14:00:12.515Z,1.40
2018-11-11T14:01:18.051Z,1.70
2018-11-11T14:02:23.587Z,1.80
2018-11-11T14:03:29.127Z,1.80
2018-11-11T14:04:34.665Z,1.70
2018-11-11T14:05:40.204Z,1.70
2018-11-11T14:06:45.750Z,1.70
2018-11-11T14:07:51.287Z,1.90
2018-11-11T14:08:56.821Z,2.20
2018-11-11T14:10:02.361Z,2.50
2018-11-11T14:11:07.965Z,2.50
2018-11-11T14:12:13.438Z,2.70
2018-11-11T14:13:18.979Z,3.40
2018-11-11T14:14:24.522Z,2.60
2018-11-11T14:15:30.050Z,2.40
2018-11-11T14:16:35.597Z,2.60
2018-11-11T14:17:41.135Z,2.60
2018-11-11T14:18:46.878Z,2.40
2018-11-11T14:19:52.212Z,2.40
2018-11-11T14:20:57.747Z,2.30
2018-11-11T14:22:03.284Z,2.10
2018-11-11T14:23:08.832Z,2.00
2018-11-11T14:24:14.369Z,1.90
2018-11-11T14:25:19.918Z,2.30
2018-11-11T14:26:25.539Z,1.80
2018-11-11T14:29:02.577Z,2.20
2018-11-11T14:30:08.106Z,2.00
2018-11-11T14:32:06.544Z,2.10
2018-11-11T14:33:12.055Z,2.00
2018-11-11T14:35:10.494Z,2.20